Vestborg — E5U2070 — position and weather

sailwx.info

Track history (hours):
 
Tides and Currents Weather Stations Pressure Air Temp Water Temp Dewpoint Dewpoint Depression Visibility Wind Speed Wind Dir Waves Ship Positions

Vestborg

Last reported at 2015-Apr-29 15:31 UTC. Time now 2015-May-03 14:53 UTC.
Position N 59°27' E 005°13'.

Length 66 m; draft 5.5 m.

Type: Cargo ship. MMSI: 518120000.

Date/timePositionNaut miles runAvg speedWind from/ knotsBaromVisibWave heightAir tempDewpointWater temp
2015-Apr-29 15:31N 59°27' E 005°13'11 8.7
2015-Apr-29 14:15N 59°17' E 005°20'5 7.0
2015-Apr-29 13:33N 59°14' E 005°27'8 8.1
2015-Apr-29 12:33N 59°09' E 005°40'8 7.8
2015-Apr-29 11:33N 59°03' E 005°51'8 8.1
2015-Apr-29 10:33N 58°57' E 005°60'4 4.1
2015-Apr-29 09:33N 58°54' E 006°06'3 1.4
2015-Apr-29 07:33N 58°52' E 006°09'0 0.0
2015-Apr-29 06:27N 58°52' E 006°09'0 0.0
2015-Apr-29 05:33N 58°52' E 006°09'0 0.0
2015-Apr-29 04:09N 58°52' E 006°09'0 0.0
2015-Apr-29 03:30N 58°52' E 006°09'0 0.0
2015-Apr-29 02:33N 58°52' E 006°09'0 0.0
2015-Apr-29 01:33N 58°52' E 006°09'0 0.0
2015-Apr-29 00:33N 58°52' E 006°09'0 0.0
2015-Apr-28 23:27N 58°52' E 006°09'0 0.0
2015-Apr-28 22:31N 58°52' E 006°09'5 4.7
2015-Apr-28 21:33N 58°55' E 006°02'9 8.9
2015-Apr-28 20:33N 59°01' E 005°49'8 8.2
2015-Apr-28 19:33N 59°02' E 005°34'10 9.9
2015-Apr-28 18:33N 58°52' E 005°31'9 9.1
2015-Apr-28 17:32N 58°43' E 005°29'1410.1
2015-Apr-28 16:07N 58°30' E 005°41'6 9.8
2015-Apr-28 15:33N 58°26' E 005°49'10 9.8
2015-Apr-28 14:33N 58°19' E 006°03'1010.0
2015-Apr-28 13:33N 58°12' E 006°17'142 7.0
2015-Apr-27 17:20N 57°47' E 010°40'16 8.8
2015-Apr-27 15:31N 57°31' E 010°45'35 8.5
2015-Apr-27 11:24N 56°59' E 010°20'9 9.9
2015-Apr-27 10:32N 57°03' E 010°06'1 0.9
2015-Apr-27 09:24N 57°03' E 010°04'0 0.0
2015-Apr-27 08:12N 57°03' E 010°04'0 0.0
2015-Apr-27 07:24N 57°03' E 010°04'0 0.0
2015-Apr-27 04:21N 57°03' E 010°04'0 0.0
2015-Apr-27 03:27N 57°03' E 010°04'0 0.2
2015-Apr-27 02:30N 57°03' E 010°04'0 0.0
2015-Apr-27 01:32N 57°03' E 010°04'0 0.0
2015-Apr-27 00:29N 57°03' E 010°04'0 0.0
2015-Apr-26 23:33N 57°03' E 010°04'0 0.0
2015-Apr-26 22:33N 57°03' E 010°04'0 0.0
2015-Apr-26 21:31N 57°03' E 010°04'0 0.0
2015-Apr-26 20:30N 57°03' E 010°04'0 0.0
2015-Apr-26 19:33N 57°03' E 010°04'0 0.0
2015-Apr-26 18:33N 57°03' E 010°04'0 0.0
2015-Apr-26 17:26N 57°03' E 010°04'0 0.0
2015-Apr-26 16:33N 57°03' E 010°04'0 0.0
2015-Apr-26 15:33N 57°03' E 010°04'0 0.0
2015-Apr-26 14:33N 57°03' E 010°04'7 6.4
2015-Apr-26 13:31N 56°59' E 010°13'50 7.1
2015-Apr-26 06:32N 57°46' E 010°43'138 8.7
2015-Apr-25 14:32N 58°10' E 006°26'8 8.1
2015-Apr-25 13:33N 58°16' E 006°18'4 3.6
2015-Apr-25 12:33N 58°20' E 006°15'0 0.0
2015-Apr-25 11:32N 58°20' E 006°15'0 0.0
2015-Apr-25 10:33N 58°20' E 006°15'0 0.0
2015-Apr-25 09:06N 58°20' E 006°16'3 6.0
2015-Apr-25 08:33N 58°20' E 006°09'9 8.4
2015-Apr-25 07:26N 58°24' E 005°54'9 8.9
2015-Apr-25 06:26N 58°30' E 005°40'16 8.0
2015-Apr-25 04:29N 58°44' E 005°26'8 8.3
2015-Apr-25 03:33N 58°51' E 005°21'9 9.4
2015-Apr-25 02:34N 59°00' E 005°19'9 9.3
2015-Apr-25 01:33N 59°09' E 005°20'13 9.1
2015-Apr-25 00:06N 59°23' E 005°18'7 9.3
2015-Apr-24 23:22N 59°29' E 005°12'1 0.0
2015-Apr-23 20:19N 59°30' E 005°13'6 7.7
2015-Apr-23 19:31N 59°24' E 005°16'8 6.9
2015-Apr-23 18:18N 59°16' E 005°21'6 7.3
2015-Apr-23 17:32N 59°12' E 005°29'8 8.3
2015-Apr-23 16:34N 59°08' E 005°43'8 8.0
2015-Apr-23 15:34N 59°02' E 005°52'8 8.0
2015-Apr-23 14:33N 58°55' E 006°01'5 5.4
2015-Apr-23 13:33N 58°52' E 006°09'0 0.0
2015-Apr-23 12:33N 58°52' E 006°09'0 0.0
2015-Apr-23 11:21N 58°52' E 006°09'0 0.0
2015-Apr-23 10:27N 58°52' E 006°09'4 4.4
2015-Apr-23 09:33N 58°54' E 006°03'9 9.6
2015-Apr-23 08:34N 59°02' E 005°52'6 6.4
2015-Apr-23 07:33N 59°07' E 006°00'0 0.0
2015-Apr-23 06:33N 59°07' E 005°60'0 0.0
2015-Apr-23 05:34N 59°07' E 006°00'0 0.0
2015-Apr-23 04:34N 59°07' E 006°00'0 0.0
2015-Apr-23 03:33N 59°07' E 006°00'0 0.0
2015-Apr-23 02:34N 59°07' E 005°60'0 0.0
2015-Apr-23 01:34N 59°07' E 006°00'0 0.0
2015-Apr-23 00:34N 59°07' E 005°60'0 0.0
2015-Apr-22 23:34N 59°07' E 006°00'0 0.0
2015-Apr-22 22:34N 59°07' E 006°00'0 0.0
2015-Apr-22 21:34N 59°07' E 006°00'0 0.0
2015-Apr-22 20:33N 59°07' E 005°60'0 0.0
2015-Apr-22 19:34N 59°07' E 005°60'0 0.0
2015-Apr-22 18:33N 59°07' E 005°60'0 0.0
2015-Apr-22 17:34N 59°07' E 005°60'3 2.5
2015-Apr-22 16:33N 59°06' E 005°55'9 8.8
2015-Apr-22 15:34N 58°59' E 005°47'1 0.8
2015-Apr-22 14:32N 58°58' E 005°45'0 0.0
2015-Apr-22 13:32N 58°58' E 005°45'0 0.0
2015-Apr-22 12:32N 58°58' E 005°45'0 0.0
2015-Apr-22 11:32N 58°58' E 005°45'0 0.0
2015-Apr-22 10:32N 58°58' E 005°45'0 0.0
2015-Apr-22 09:32N 58°58' E 005°45'0 0.0
2015-Apr-22 08:32N 58°58' E 005°45'0 0.1
2015-Apr-22 07:32N 58°58' E 005°45'0 0.0
2015-Apr-22 06:32N 58°58' E 005°45'0 0.0
2015-Apr-22 05:32N 58°58' E 005°45'0 0.0
2015-Apr-22 04:32N 58°58' E 005°45'0 0.0
2015-Apr-22 03:32N 58°58' E 005°45'0 0.0
2015-Apr-22 02:32N 58°58' E 005°45'0 0.0
2015-Apr-22 01:32N 58°58' E 005°45'0 0.0
2015-Apr-22 00:32N 58°58' E 005°45'0 0.0
2015-Apr-21 23:32N 58°58' E 005°45'0 0.0
2015-Apr-21 22:32N 58°58' E 005°45'0 0.0
2015-Apr-21 21:32N 58°58' E 005°45'0 0.0
2015-Apr-21 20:32N 58°58' E 005°45'0 0.0
2015-Apr-21 19:32N 58°58' E 005°45'0 0.0
2015-Apr-21 18:32N 58°58' E 005°45'0 0.0
2015-Apr-21 17:32N 58°58' E 005°45'0 0.0
2015-Apr-21 16:32N 58°58' E 005°45'0 0.0
2015-Apr-21 15:29N 58°58' E 005°45'0 0.0
2015-Apr-21 14:32N 58°58' E 005°45'1 0.8
2015-Apr-21 13:34N 58°59' E 005°46'8 8.1
2015-Apr-21 12:33N 59°04' E 005°34'10 9.8
2015-Apr-21 11:33N 59°11' E 005°20'1110.3
2015-Apr-21 10:28N 59°22' E 005°18'  
Track history (hours):
 
Tides and Currents Weather Stations Pressure Air Temp Water Temp Dewpoint Dewpoint Depression Visibility Wind Speed Wind Dir Waves Ship Positions

Vestborg

Last reported at 2015-Apr-29 15:31 UTC. Time now 2015-May-03 14:53 UTC.
Position N 59°27' E 005°13'.

Length 66 m; draft 5.5 m.

Type: Cargo ship. MMSI: 518120000.

Date/timePositionNaut miles runAvg speedWind from/ knotsBaromVisibWave heightAir tempDewpointWater temp
2015-Apr-29 15:31N 59°27' E 005°13'11 8.7
2015-Apr-29 14:15N 59°17' E 005°20'5 7.0
2015-Apr-29 13:33N 59°14' E 005°27'8 8.1
2015-Apr-29 12:33N 59°09' E 005°40'8 7.8
2015-Apr-29 11:33N 59°03' E 005°51'8 8.1
2015-Apr-29 10:33N 58°57' E 005°60'4 4.1
2015-Apr-29 09:33N 58°54' E 006°06'3 1.4
2015-Apr-29 07:33N 58°52' E 006°09'0 0.0
2015-Apr-29 06:27N 58°52' E 006°09'0 0.0
2015-Apr-29 05:33N 58°52' E 006°09'0 0.0
2015-Apr-29 04:09N 58°52' E 006°09'0 0.0
2015-Apr-29 03:30N 58°52' E 006°09'0 0.0
2015-Apr-29 02:33N 58°52' E 006°09'0 0.0
2015-Apr-29 01:33N 58°52' E 006°09'0 0.0
2015-Apr-29 00:33N 58°52' E 006°09'0 0.0
2015-Apr-28 23:27N 58°52' E 006°09'0 0.0
2015-Apr-28 22:31N 58°52' E 006°09'5 4.7
2015-Apr-28 21:33N 58°55' E 006°02'9 8.9
2015-Apr-28 20:33N 59°01' E 005°49'8 8.2
2015-Apr-28 19:33N 59°02' E 005°34'10 9.9
2015-Apr-28 18:33N 58°52' E 005°31'9 9.1
2015-Apr-28 17:32N 58°43' E 005°29'1410.1
2015-Apr-28 16:07N 58°30' E 005°41'6 9.8
2015-Apr-28 15:33N 58°26' E 005°49'10 9.8
2015-Apr-28 14:33N 58°19' E 006°03'1010.0
2015-Apr-28 13:33N 58°12' E 006°17'142 7.0
2015-Apr-27 17:20N 57°47' E 010°40'16 8.8
2015-Apr-27 15:31N 57°31' E 010°45'35 8.5
2015-Apr-27 11:24N 56°59' E 010°20'9 9.9
2015-Apr-27 10:32N 57°03' E 010°06'1 0.9
2015-Apr-27 09:24N 57°03' E 010°04'0 0.0
2015-Apr-27 08:12N 57°03' E 010°04'0 0.0
2015-Apr-27 07:24N 57°03' E 010°04'0 0.0
2015-Apr-27 04:21N 57°03' E 010°04'0 0.0
2015-Apr-27 03:27N 57°03' E 010°04'0 0.2
2015-Apr-27 02:30N 57°03' E 010°04'0 0.0
2015-Apr-27 01:32N 57°03' E 010°04'0 0.0
2015-Apr-27 00:29N 57°03' E 010°04'0 0.0
2015-Apr-26 23:33N 57°03' E 010°04'0 0.0
2015-Apr-26 22:33N 57°03' E 010°04'0 0.0
2015-Apr-26 21:31N 57°03' E 010°04'0 0.0
2015-Apr-26 20:30N 57°03' E 010°04'0 0.0
2015-Apr-26 19:33N 57°03' E 010°04'0 0.0
2015-Apr-26 18:33N 57°03' E 010°04'0 0.0
2015-Apr-26 17:26N 57°03' E 010°04'0 0.0
2015-Apr-26 16:33N 57°03' E 010°04'0 0.0
2015-Apr-26 15:33N 57°03' E 010°04'0 0.0
2015-Apr-26 14:33N 57°03' E 010°04'7 6.4
2015-Apr-26 13:31N 56°59' E 010°13'50 7.1
2015-Apr-26 06:32N 57°46' E 010°43'138 8.7
2015-Apr-25 14:32N 58°10' E 006°26'8 8.1
2015-Apr-25 13:33N 58°16' E 006°18'4 3.6
2015-Apr-25 12:33N 58°20' E 006°15'0 0.0
2015-Apr-25 11:32N 58°20' E 006°15'0 0.0
2015-Apr-25 10:33N 58°20' E 006°15'0 0.0
2015-Apr-25 09:06N 58°20' E 006°16'3 6.0
2015-Apr-25 08:33N 58°20' E 006°09'9 8.4
2015-Apr-25 07:26N 58°24' E 005°54'9 8.9
2015-Apr-25 06:26N 58°30' E 005°40'16 8.0
2015-Apr-25 04:29N 58°44' E 005°26'8 8.3
2015-Apr-25 03:33N 58°51' E 005°21'9 9.4
2015-Apr-25 02:34N 59°00' E 005°19'9 9.3
2015-Apr-25 01:33N 59°09' E 005°20'13 9.1
2015-Apr-25 00:06N 59°23' E 005°18'7 9.3
2015-Apr-24 23:22N 59°29' E 005°12'1 0.0
2015-Apr-23 20:19N 59°30' E 005°13'6 7.7
2015-Apr-23 19:31N 59°24' E 005°16'8 6.9
2015-Apr-23 18:18N 59°16' E 005°21'6 7.3
2015-Apr-23 17:32N 59°12' E 005°29'8 8.3
2015-Apr-23 16:34N 59°08' E 005°43'8 8.0
2015-Apr-23 15:34N 59°02' E 005°52'8 8.0
2015-Apr-23 14:33N 58°55' E 006°01'5 5.4
2015-Apr-23 13:33N 58°52' E 006°09'0 0.0
2015-Apr-23 12:33N 58°52' E 006°09'0 0.0
2015-Apr-23 11:21N 58°52' E 006°09'0 0.0
2015-Apr-23 10:27N 58°52' E 006°09'4 4.4
2015-Apr-23 09:33N 58°54' E 006°03'9 9.6
2015-Apr-23 08:34N 59°02' E 005°52'6 6.4
2015-Apr-23 07:33N 59°07' E 006°00'0 0.0
2015-Apr-23 06:33N 59°07' E 005°60'0 0.0
2015-Apr-23 05:34N 59°07' E 006°00'0 0.0
2015-Apr-23 04:34N 59°07' E 006°00'0 0.0
2015-Apr-23 03:33N 59°07' E 006°00'0 0.0
2015-Apr-23 02:34N 59°07' E 005°60'0 0.0
2015-Apr-23 01:34N 59°07' E 006°00'0 0.0
2015-Apr-23 00:34N 59°07' E 005°60'0 0.0
2015-Apr-22 23:34N 59°07' E 006°00'0 0.0
2015-Apr-22 22:34N 59°07' E 006°00'0 0.0
2015-Apr-22 21:34N 59°07' E 006°00'0 0.0
2015-Apr-22 20:33N 59°07' E 005°60'0 0.0
2015-Apr-22 19:34N 59°07' E 005°60'0 0.0
2015-Apr-22 18:33N 59°07' E 005°60'0 0.0
2015-Apr-22 17:34N 59°07' E 005°60'3 2.5
2015-Apr-22 16:33N 59°06' E 005°55'9 8.8
2015-Apr-22 15:34N 58°59' E 005°47'1 0.8
2015-Apr-22 14:32N 58°58' E 005°45'0 0.0
2015-Apr-22 13:32N 58°58' E 005°45'0 0.0
2015-Apr-22 12:32N 58°58' E 005°45'0 0.0
2015-Apr-22 11:32N 58°58' E 005°45'0 0.0
2015-Apr-22 10:32N 58°58' E 005°45'0 0.0
2015-Apr-22 09:32N 58°58' E 005°45'0 0.0
2015-Apr-22 08:32N 58°58' E 005°45'0 0.1
2015-Apr-22 07:32N 58°58' E 005°45'0 0.0
2015-Apr-22 06:32N 58°58' E 005°45'0 0.0
2015-Apr-22 05:32N 58°58' E 005°45'0 0.0
2015-Apr-22 04:32N 58°58' E 005°45'0 0.0
2015-Apr-22 03:32N 58°58' E 005°45'0 0.0
2015-Apr-22 02:32N 58°58' E 005°45'0 0.0
2015-Apr-22 01:32N 58°58' E 005°45'0 0.0
2015-Apr-22 00:32N 58°58' E 005°45'0 0.0
2015-Apr-21 23:32N 58°58' E 005°45'0 0.0
2015-Apr-21 22:32N 58°58' E 005°45'0 0.0
2015-Apr-21 21:32N 58°58' E 005°45'0 0.0
2015-Apr-21 20:32N 58°58' E 005°45'0 0.0
2015-Apr-21 19:32N 58°58' E 005°45'0 0.0
2015-Apr-21 18:32N 58°58' E 005°45'0 0.0
2015-Apr-21 17:32N 58°58' E 005°45'0 0.0
2015-Apr-21 16:32N 58°58' E 005°45'0 0.0
2015-Apr-21 15:29N 58°58' E 005°45'0 0.0
2015-Apr-21 14:32N 58°58' E 005°45'1 0.8
2015-Apr-21 13:34N 58°59' E 005°46'8 8.1
2015-Apr-21 12:33N 59°04' E 005°34'10 9.8
2015-Apr-21 11:33N 59°11' E 005°20'1110.3
2015-Apr-21 10:28N 59°22' E 005°18'  

Dump ship's entire track history